sensor_id;sensor_type;location;lat;lon;timestamp;temperature;humidity
19385;DHT22;9828;54.122;17.974;2023-09-07T07:20:45;19.90;99.90
19385;DHT22;9828;54.122;17.974;2023-09-07T07:26:07;19.60;1.00
19385;DHT22;9828;54.122;17.974;2023-09-07T07:31:30;19.70;24.70
19385;DHT22;9828;54.122;17.974;2023-09-07T07:36:51;19.80;33.00
19385;DHT22;9828;54.122;17.974;2023-09-07T07:42:12;20.20;99.90
19385;DHT22;9828;54.122;17.974;2023-09-07T07:47:34;20.70;1.00
19385;DHT22;9828;54.122;17.974;2023-09-07T07:52:56;21.30;63.00
19385;DHT22;9828;54.122;17.974;2023-09-07T08:49:54;28.70;99.90
19385;DHT22;9828;54.122;17.974;2023-09-07T08:55:16;29.40;99.90
19385;DHT22;9828;54.122;17.974;2023-09-07T09:45:41;31.80;99.90
19385;DHT22;9828;54.122;17.974;2023-09-07T09:51:03;32.10;99.90
19385;DHT22;9828;54.122;17.974;2023-09-07T09:56:25;31.90;99.90
19385;DHT22;9828;54.122;17.974;2023-09-07T10:01:48;32.40;99.90
19385;DHT22;9828;54.122;17.974;2023-09-07T10:07:11;32.40;99.90
19385;DHT22;9828;54.122;17.974;2023-09-07T10:12:43;32.90;99.90
19385;DHT22;9828;54.122;17.974;2023-09-07T10:18:12;32.60;99.90
19385;DHT22;9828;54.122;17.974;2023-09-07T10:23:45;32.90;99.90
19385;DHT22;9828;54.122;17.974;2023-09-07T10:29:10;33.50;99.90
19385;DHT22;9828;54.122;17.974;2023-09-07T10:34:35;33.60;1.00
19385;DHT22;9828;54.122;17.974;2023-09-07T10:39:58;33.70;99.90
19385;DHT22;9828;54.122;17.974;2023-09-07T10:45:20;33.60;99.90
19385;DHT22;9828;54.122;17.974;2023-09-07T10:50:46;33.70;99.90
19385;DHT22;9828;54.122;17.974;2023-09-07T10:56:07;34.30;99.90
19385;DHT22;9828;54.122;17.974;2023-09-07T11:01:30;34.10;99.90
19385;DHT22;9828;54.122;17.974;2023-09-07T11:06:52;33.90;99.90
19385;DHT22;9828;54.122;17.974;2023-09-07T11:23:00;34.80;99.90
19385;DHT22;9828;54.122;17.974;2023-09-07T11:28:24;34.60;99.90
19385;DHT22;9828;54.122;17.974;2023-09-07T11:33:46;34.30;99.90
19385;DHT22;9828;54.122;17.974;2023-09-07T11:39:08;34.10;99.90
19385;DHT22;9828;54.122;17.974;2023-09-07T11:44:35;34.00;99.90
19385;DHT22;9828;54.122;17.974;2023-09-07T11:49:57;34.10;99.90
19385;DHT22;9828;54.122;17.974;2023-09-07T11:55:18;34.20;99.90
19385;DHT22;9828;54.122;17.974;2023-09-07T12:00:40;34.10;99.90
19385;DHT22;9828;54.122;17.974;2023-09-07T12:06:02;33.90;99.90
19385;DHT22;9828;54.122;17.974;2023-09-07T12:11:24;33.70;99.90
19385;DHT22;9828;54.122;17.974;2023-09-07T12:16:45;33.50;99.90
19385;DHT22;9828;54.122;17.974;2023-09-07T12:22:06;33.40;99.90
19385;DHT22;9828;54.122;17.974;2023-09-07T12:27:27;33.20;99.90
19385;DHT22;9828;54.122;17.974;2023-09-07T12:32:51;33.30;99.90
19385;DHT22;9828;54.122;17.974;2023-09-07T12:38:13;33.10;99.90
19385;DHT22;9828;54.122;17.974;2023-09-07T12:43:38;32.80;99.90
19385;DHT22;9828;54.122;17.974;2023-09-07T12:48:59;32.60;99.90
19385;DHT22;9828;54.122;17.974;2023-09-07T12:54:20;32.50;99.90
19385;DHT22;9828;54.122;17.974;2023-09-07T12:59:42;32.50;99.90
19385;DHT22;9828;54.122;17.974;2023-09-07T13:05:03;32.20;99.90
19385;DHT22;9828;54.122;17.974;2023-09-07T13:10:25;32.40;99.90
19385;DHT22;9828;54.122;17.974;2023-09-07T13:15:47;32.20;99.90
19385;DHT22;9828;54.122;17.974;2023-09-07T13:21:08;31.80;99.90
19385;DHT22;9828;54.122;17.974;2023-09-07T13:26:29;31.20;99.90
19385;DHT22;9828;54.122;17.974;2023-09-07T13:31:51;31.00;99.90
19385;DHT22;9828;54.122;17.974;2023-09-07T13:37:13;30.80;99.90
19385;DHT22;9828;54.122;17.974;2023-09-07T13:42:34;30.70;99.90
19385;DHT22;9828;54.122;17.974;2023-09-07T13:47:56;30.30;99.90
19385;DHT22;9828;54.122;17.974;2023-09-07T13:53:18;29.90;99.90
19385;DHT22;9828;54.122;17.974;2023-09-07T13:58:38;29.70;99.90
19385;DHT22;9828;54.122;17.974;2023-09-07T14:03:59;29.60;99.90
19385;DHT22;9828;54.122;17.974;2023-09-07T14:09:21;29.40;99.90
19385;DHT22;9828;54.122;17.974;2023-09-07T14:14:44;29.00;99.90
19385;DHT22;9828;54.122;17.974;2023-09-07T14:20:05;28.70;99.90
19385;DHT22;9828;54.122;17.974;2023-09-07T14:25:27;28.50;99.90
19385;DHT22;9828;54.122;17.974;2023-09-07T14:30:48;28.30;99.90
19385;DHT22;9828;54.122;17.974;2023-09-07T14:36:09;28.10;99.90
19385;DHT22;9828;54.122;17.974;2023-09-07T14:41:30;28.00;99.90
19385;DHT22;9828;54.122;17.974;2023-09-07T14:46:52;27.80;99.90
19385;DHT22;9828;54.122;17.974;2023-09-07T15:10:11;27.20;99.90
19385;DHT22;9828;54.122;17.974;2023-09-07T15:15:33;27.00;99.90
19385;DHT22;9828;54.122;17.974;2023-09-07T15:20:58;27.50;99.90
19385;DHT22;9828;54.122;17.974;2023-09-07T15:26:19;26.80;99.90
19385;DHT22;9828;54.122;17.974;2023-09-07T15:31:40;26.50;99.90
19385;DHT22;9828;54.122;17.974;2023-09-07T15:37:05;26.40;99.90
19385;DHT22;9828;54.122;17.974;2023-09-07T15:42:26;26.20;99.90
19385;DHT22;9828;54.122;17.974;2023-09-07T15:47:47;26.20;99.90
19385;DHT22;9828;54.122;17.974;2023-09-07T15:53:08;26.00;99.90
19385;DHT22;9828;54.122;17.974;2023-09-07T15:58:30;25.90;99.90
19385;DHT22;9828;54.122;17.974;2023-09-07T16:30:39;25.30;1.00
19385;DHT22;9828;54.122;17.974;2023-09-07T16:36:00;25.10;1.00
19385;DHT22;9828;54.122;17.974;2023-09-07T16:52:04;24.60;1.00
19385;DHT22;9828;54.122;17.974;2023-09-07T16:57:27;24.30;99.90
19385;DHT22;9828;54.122;17.974;2023-09-07T17:08:10;24.00;99.90
19385;DHT22;9828;54.122;17.974;2023-09-07T17:13:32;23.90;1.00
19385;DHT22;9828;54.122;17.974;2023-09-07T17:18:53;23.70;1.00
19385;DHT22;9828;54.122;17.974;2023-09-07T17:24:14;23.60;1.00
19385;DHT22;9828;54.122;17.974;2023-09-07T17:35:01;23.20;1.00
19385;DHT22;9828;54.122;17.974;2023-09-07T17:40:22;23.00;1.00
19385;DHT22;9828;54.122;17.974;2023-09-07T17:51:04;22.70;99.90
19385;DHT22;9828;54.122;17.974;2023-09-07T17:56:25;22.60;99.90
19385;DHT22;9828;54.122;17.974;2023-09-07T18:01:46;22.50;99.90
19385;DHT22;9828;54.122;17.974;2023-09-07T18:07:07;22.40;99.90
19385;DHT22;9828;54.122;17.974;2023-09-07T18:12:28;22.30;99.90
19385;DHT22;9828;54.122;17.974;2023-09-07T18:17:49;22.20;99.90
19385;DHT22;9828;54.122;17.974;2023-09-07T18:23:11;22.10;99.90
19385;DHT22;9828;54.122;17.974;2023-09-07T18:28:33;22.00;99.90
19385;DHT22;9828;54.122;17.974;2023-09-07T18:33:55;21.90;99.90
19385;DHT22;9828;54.122;17.974;2023-09-07T18:39:16;21.70;99.90
19385;DHT22;9828;54.122;17.974;2023-09-07T18:49:58;21.60;99.90
19385;DHT22;9828;54.122;17.974;2023-09-07T19:00:40;21.30;99.90
19385;DHT22;9828;54.122;17.974;2023-09-07T19:06:03;21.40;1.00
19385;DHT22;9828;54.122;17.974;2023-09-07T19:18:32;21.00;1.00
19385;DHT22;9828;54.122;17.974;2023-09-07T19:23:55;21.00;1.00
19385;DHT22;9828;54.122;17.974;2023-09-07T19:29:16;20.90;1.00
19385;DHT22;9828;54.122;17.974;2023-09-07T19:34:38;20.80;1.00
19385;DHT22;9828;54.122;17.974;2023-09-07T19:39:59;20.80;1.00
19385;DHT22;9828;54.122;17.974;2023-09-07T19:45:21;20.70;1.00
19385;DHT22;9828;54.122;17.974;2023-09-07T19:50:42;20.60;1.00
19385;DHT22;9828;54.122;17.974;2023-09-07T19:56:10;20.60;1.00
19385;DHT22;9828;54.122;17.974;2023-09-07T20:01:54;20.50;1.00
19385;DHT22;9828;54.122;17.974;2023-09-07T20:07:15;20.50;1.00
19385;DHT22;9828;54.122;17.974;2023-09-07T20:12:37;20.40;1.00
19385;DHT22;9828;54.122;17.974;2023-09-07T20:17:58;20.40;1.00
19385;DHT22;9828;54.122;17.974;2023-09-07T20:23:20;20.30;1.00
19385;DHT22;9828;54.122;17.974;2023-09-07T20:28:41;20.20;1.00
19385;DHT22;9828;54.122;17.974;2023-09-07T20:34:03;20.10;1.00
19385;DHT22;9828;54.122;17.974;2023-09-07T20:39:25;20.10;1.00
19385;DHT22;9828;54.122;17.974;2023-09-07T20:44:46;20.00;1.00
19385;DHT22;9828;54.122;17.974;2023-09-07T20:50:07;19.90;1.00
19385;DHT22;9828;54.122;17.974;2023-09-07T20:55:28;19.80;1.00
19385;DHT22;9828;54.122;17.974;2023-09-07T21:00:50;19.80;1.00
19385;DHT22;9828;54.122;17.974;2023-09-07T21:06:11;19.70;1.00
19385;DHT22;9828;54.122;17.974;2023-09-07T21:11:32;19.60;1.00
19385;DHT22;9828;54.122;17.974;2023-09-07T21:16:53;19.50;1.00
19385;DHT22;9828;54.122;17.974;2023-09-07T21:22:15;19.50;99.90
19385;DHT22;9828;54.122;17.974;2023-09-07T21:32:22;19.40;1.00
19385;DHT22;9828;54.122;17.974;2023-09-07T21:37:44;19.30;99.90
19385;DHT22;9828;54.122;17.974;2023-09-07T21:43:05;19.30;8.40
19385;DHT22;9828;54.122;17.974;2023-09-07T21:48:26;19.20;1.00
19385;DHT22;9828;54.122;17.974;2023-09-07T21:53:48;19.10;99.90
19385;DHT22;9828;54.122;17.974;2023-09-07T21:59:09;18.90;99.90
19385;DHT22;9828;54.122;17.974;2023-09-07T22:04:30;18.80;1.00
19385;DHT22;9828;54.122;17.974;2023-09-07T22:09:51;18.70;99.90
19385;DHT22;9828;54.122;17.974;2023-09-07T22:15:12;18.70;93.60
19385;DHT22;9828;54.122;17.974;2023-09-07T22:20:33;18.70;1.00
19385;DHT22;9828;54.122;17.974;2023-09-07T22:25:55;18.60;99.90
19385;DHT22;9828;54.122;17.974;2023-09-07T22:31:16;18.60;1.00
19385;DHT22;9828;54.122;17.974;2023-09-07T22:36:37;18.50;1.00
19385;DHT22;9828;54.122;17.974;2023-09-07T22:41:58;18.50;5.90
19385;DHT22;9828;54.122;17.974;2023-09-07T22:47:19;18.30;29.80
19385;DHT22;9828;54.122;17.974;2023-09-07T22:52:41;18.30;1.00
19385;DHT22;9828;54.122;17.974;2023-09-07T22:58:02;18.30;1.00
19385;DHT22;9828;54.122;17.974;2023-09-07T23:03:23;18.30;99.90
19385;DHT22;9828;54.122;17.974;2023-09-07T23:08:44;18.20;99.90
19385;DHT22;9828;54.122;17.974;2023-09-07T23:14:07;18.10;1.00
19385;DHT22;9828;54.122;17.974;2023-09-07T23:19:28;18.00;99.90
19385;DHT22;9828;54.122;17.974;2023-09-07T23:24:50;18.00;1.00
19385;DHT22;9828;54.122;17.974;2023-09-07T23:30:11;17.90;99.90
19385;DHT22;9828;54.122;17.974;2023-09-07T23:35:32;17.70;1.00
19385;DHT22;9828;54.122;17.974;2023-09-07T23:40:53;17.70;99.90
19385;DHT22;9828;54.122;17.974;2023-09-07T23:46:14;17.60;1.00
19385;DHT22;9828;54.122;17.974;2023-09-07T23:51:35;17.50;1.00
19385;DHT22;9828;54.122;17.974;2023-09-07T23:56:56;17.60;1.00
